Time;durP1;ratioP1;P1;durP2;ratioP2;P2;SDS_P1;SDS_P2;PMS_P1;PMS_P2;Temp;Humidity;BMP_temperature;BMP_pressure;BME280_temperature;BME280_humidity;BME280_pressure;Samples;Min_cycle;Max_cycle;Signal;HPM_P1;HPM_P2
2023/05/09 07:02:23;;;;;;;14.30;10.93;;;;;;;;;;12938579;22;20038;-84
2023/05/09 07:07:24;;;;;;;11.30;8.73;;;;;;;;;;12832504;23;1594722;-83
2023/05/09 07:12:25;;;;;;;11.57;9.20;;;;;;;;;;12879836;23;20005;-80
2023/05/09 07:17:28;;;;;;;12.40;9.82;;;;;;;;;;12881500;23;20008;-82
2023/05/09 07:22:29;;;;;;;16.05;12.43;;;;;;;;;;12876492;23;20005;-81
2023/05/09 07:27:30;;;;;;;11.10;9.93;;;;;;;;;;12877444;23;20007;-80
2023/05/09 07:32:32;;;;;;;12.18;10.73;;;;;;;;;;12881186;23;20005;-81
2023/05/09 07:37:33;;;;;;;14.85;11.30;;;;;;;;;;12885886;23;20008;-82
2023/05/09 07:42:34;;;;;;;14.05;12.50;;;;;;;;;;12876791;23;20001;-82
2023/05/09 07:47:35;;;;;;;11.98;10.70;;;;;;;;;;12874356;23;20341;-82
2023/05/09 07:52:36;;;;;;;11.85;10.48;;;;;;;;;;12880138;23;20004;-84
2023/05/09 07:57:38;;;;;;;15.15;12.32;;;;;;;;;;12874269;23;20008;-82
2023/05/09 08:02:39;;;;;;;10.98;9.80;;;;;;;;;;12875269;23;20005;-81
2023/05/09 08:07:40;;;;;;;11.43;10.23;;;;;;;;;;12876833;23;20013;-82
2023/05/09 08:12:42;;;;;;;11.30;10.05;;;;;;;;;;12874889;23;20449;-82
2023/05/09 08:17:43;;;;;;;14.07;10.95;;;;;;;;;;12878017;23;20349;-81
2023/05/09 08:22:44;;;;;;;10.77;8.40;;;;;;;;;;12877247;23;20008;-81
2023/05/09 08:27:45;;;;;;;11.00;9.90;;;;;;;;;;12875430;23;20004;-80
2023/05/09 08:32:46;;;;;;;9.73;8.00;;;;;;;;;;12876577;23;20000;-82
2023/05/09 08:37:47;;;;;;;8.57;7.68;;;;;;;;;;12875025;23;20005;-81
2023/05/09 08:42:48;;;;;;;9.00;8.10;;;;;;;;;;12873753;23;20005;-82
2023/05/09 08:47:50;;;;;;;8.45;7.18;;;;;;;;;;12873970;23;20322;-81
2023/05/09 08:52:51;;;;;;;9.13;7.93;;;;;;;;;;12875156;23;20091;-80
2023/05/09 08:57:52;;;;;;;8.65;6.82;;;;;;;;;;12877301;23;20001;-81
2023/05/09 09:02:54;;;;;;;11.93;10.73;;;;;;;;;;12879287;23;20079;-82
2023/05/09 09:08:00;;;;;;;8.85;7.55;;;;;;;;;;12884792;23;19996;-82
2023/05/09 09:13:05;;;;;;;9.85;6.70;;;;;;;;;;12872571;23;20005;-81
2023/05/09 09:18:08;;;;;;;8.45;6.22;;;;;;;;;;12873448;23;20019;-80
2023/05/09 09:23:09;;;;;;;8.80;6.75;;;;;;;;;;12876333;23;20072;-81
2023/05/09 09:28:11;;;;;;;6.57;5.95;;;;;;;;;;12850110;23;20117;-82
2023/05/09 09:33:18;;;;;;;5.97;5.22;;;;;;;;;;12846093;23;20012;-81
2023/05/09 09:38:20;;;;;;;5.40;4.90;;;;;;;;;;12874154;23;20063;-82
2023/05/09 09:43:26;;;;;;;6.28;4.70;;;;;;;;;;12871755;23;20000;-81
2023/05/09 09:48:32;;;;;;;6.60;4.47;;;;;;;;;;12870592;23;20063;-81
2023/05/09 09:53:38;;;;;;;6.15;4.18;;;;;;;;;;12871198;23;20429;-81
2023/05/09 09:58:39;;;;;;;5.47;3.70;;;;;;;;;;12872336;23;20013;-82
2023/05/09 10:03:41;;;;;;;6.15;4.30;;;;;;;;;;12870824;23;20437;-82
2023/05/09 10:08:47;;;;;;;4.40;4.00;;;;;;;;;;12874459;23;20016;-81
2023/05/09 10:13:48;;;;;;;5.47;4.35;;;;;;;;;;12876010;23;20012;-82
2023/05/09 10:18:49;;;;;;;12.38;9.80;;;;;;;;;;12872358;23;20018;-82
2023/05/09 10:23:52;;;;;;;5.43;4.93;;;;;;;;;;12877723;23;20318;-82
2023/05/09 10:28:54;;;;;;;6.85;5.70;;;;;;;;;;12877761;23;20087;-83
2023/05/09 10:33:56;;;;;;;5.57;4.68;;;;;;;;;;12852922;23;20102;-84
2023/05/09 10:38:57;;;;;;;7.18;4.85;;;;;;;;;;12881241;23;20063;-83
2023/05/09 10:43:58;;;;;;;4.38;3.97;;;;;;;;;;12879758;23;20000;-84
2023/05/09 10:49:00;;;;;;;6.45;4.57;;;;;;;;;;12854367;23;20335;-83
2023/05/09 10:54:01;;;;;;;5.90;4.88;;;;;;;;;;12854796;23;20067;-84
2023/05/09 10:59:31;;;;;;;5.20;4.20;;;;;;;;;;12882057;23;20007;-84
2023/05/09 11:04:32;;;;;;;5.00;4.10;;;;;;;;;;12878737;23;20009;-84
2023/05/09 11:09:40;;;;;;;7.57;6.88;;;;;;;;;;12884374;23;20001;-82
2023/05/09 11:14:43;;;;;;;5.70;4.60;;;;;;;;;;12878951;23;20001;-83
2023/05/09 11:19:47;;;;;;;5.85;4.68;;;;;;;;;;12877328;23;20015;-82
2023/05/09 11:24:49;;;;;;;7.85;4.30;;;;;;;;;;12877616;23;20087;-81
2023/05/09 11:29:53;;;;;;;6.50;4.78;;;;;;;;;;12879452;23;20008;-81
2023/05/09 11:35:08;;;;;;;5.07;3.90;;;;;;;;;;12882192;23;20001;-81
2023/05/09 11:40:11;;;;;;;4.90;4.28;;;;;;;;;;12886330;23;20036;-82
2023/05/09 11:45:12;;;;;;;5.70;4.60;;;;;;;;;;12887286;23;20004;-82
2023/05/09 11:50:14;;;;;;;4.70;4.25;;;;;;;;;;12876811;23;20000;-81
2023/05/09 11:55:17;;;;;;;4.90;3.33;;;;;;;;;;12882153;23;20045;-81
2023/05/09 12:00:19;;;;;;;3.72;2.95;;;;;;;;;;12877188;23;20004;-82
2023/05/09 12:05:21;;;;;;;3.80;3.40;;;;;;;;;;12852559;23;20068;-81
2023/05/09 12:10:22;;;;;;;4.15;3.75;;;;;;;;;;12879448;23;20008;-82
2023/05/09 12:15:24;;;;;;;6.03;2.90;;;;;;;;;;12874895;23;20009;-78
2023/05/09 12:20:25;;;;;;;4.18;3.10;;;;;;;;;;12869901;23;20029;-78
2023/05/09 12:25:27;;;;;;;4.13;2.70;;;;;;;;;;12872961;23;20001;-79
2023/05/09 12:30:29;;;;;;;4.15;2.65;;;;;;;;;;12873709;23;20012;-78
2023/05/09 12:35:31;;;;;;;4.63;2.38;;;;;;;;;;12866051;23;20388;-80
2023/05/09 12:40:32;;;;;;;5.15;3.08;;;;;;;;;;12867830;23;20028;-77
2023/05/09 12:45:33;;;;;;;3.47;2.15;;;;;;;;;;12866304;23;20433;-78
2023/05/09 12:50:35;;;;;;;3.72;2.60;;;;;;;;;;12866735;23;20008;-77
2023/05/09 12:55:40;;;;;;;4.45;3.33;;;;;;;;;;12875536;23;20429;-77
2023/05/09 13:00:42;;;;;;;2.97;2.20;;;;;;;;;;12872331;23;20428;-77
2023/05/09 13:05:53;;;;;;;4.22;2.50;;;;;;;;;;12870446;23;20008;-77
2023/05/09 13:10:54;;;;;;;4.35;2.67;;;;;;;;;;12871700;23;20385;-79
2023/05/09 13:15:56;;;;;;;5.03;2.80;;;;;;;;;;12875655;23;20007;-78
2023/05/09 13:20:57;;;;;;;5.80;2.45;;;;;;;;;;12865363;23;20004;-78
2023/05/09 13:25:58;;;;;;;15.57;12.63;;;;;;;;;;12867518;23;20028;-78
2023/05/09 13:31:00;;;;;;;4.90;2.70;;;;;;;;;;12868069;23;20008;-78
2023/05/09 13:36:01;;;;;;;3.95;2.40;;;;;;;;;;12868034;23;20004;-78
2023/05/09 13:41:02;;;;;;;3.95;2.45;;;;;;;;;;12867760;23;20144;-77
2023/05/09 13:46:03;;;;;;;3.45;2.38;;;;;;;;;;12869710;23;20038;-78
2023/05/09 13:51:06;;;;;;;2.47;2.10;;;;;;;;;;12843702;23;20008;-79
2023/05/09 13:56:08;;;;;;;4.50;2.72;;;;;;;;;;12869760;23;20068;-79
2023/05/09 14:01:10;;;;;;;4.63;3.10;;;;;;;;;;12869162;23;20008;-80
2023/05/09 14:06:12;;;;;;;4.65;2.70;;;;;;;;;;12867679;23;20056;-79
2023/05/09 14:11:13;;;;;;;5.90;3.70;;;;;;;;;;12872138;23;20000;-79
2023/05/09 14:16:14;;;;;;;5.38;4.53;;;;;;;;;;12871405;23;20009;-78
2023/05/09 14:21:15;;;;;;;7.53;4.68;;;;;;;;;;12871903;23;20031;-79
2023/05/09 14:26:18;;;;;;;5.18;4.40;;;;;;;;;;12873460;23;20000;-78
2023/05/09 14:31:19;;;;;;;3.40;3.10;;;;;;;;;;12873511;23;20322;-78
2023/05/09 14:36:20;;;;;;;4.00;3.53;;;;;;;;;;12873069;23;20001;-79
2023/05/09 14:41:21;;;;;;;4.32;3.45;;;;;;;;;;12872007;23;20000;-78
2023/05/09 14:46:23;;;;;;;7.60;3.08;;;;;;;;;;12870191;23;20059;-78
2023/05/09 14:51:24;;;;;;;5.68;3.92;;;;;;;;;;12871673;23;20035;-78
2023/05/09 14:56:25;;;;;;;4.43;3.72;;;;;;;;;;12871799;23;20008;-78
2023/05/09 15:01:27;;;;;;;6.10;4.32;;;;;;;;;;12894401;23;20013;-78
2023/05/09 15:06:29;;;;;;;5.00;3.88;;;;;;;;;;12915631;23;20036;-79
2023/05/09 15:11:30;;;;;;;7.10;6.32;;;;;;;;;;12874591;23;20008;-80
2023/05/09 15:16:31;;;;;;;5.15;4.10;;;;;;;;;;12872875;23;20004;-80
2023/05/09 15:21:33;;;;;;;4.75;3.65;;;;;;;;;;12868918;23;20441;-79
2023/05/09 15:26:34;;;;;;;4.13;3.60;;;;;;;;;;12873461;23;20005;-79
2023/05/09 15:31:35;;;;;;;5.13;4.10;;;;;;;;;;12870507;23;20024;-79
2023/05/09 15:36:36;;;;;;;4.50;4.10;;;;;;;;;;12870554;23;20008;-78
2023/05/09 15:41:37;;;;;;;5.07;4.63;;;;;;;;;;12870281;23;20008;-79
2023/05/09 15:46:39;;;;;;;5.03;4.40;;;;;;;;;;12870312;23;20001;-78
2023/05/09 15:51:41;;;;;;;4.32;3.90;;;;;;;;;;12868613;23;20028;-79
2023/05/09 15:56:42;;;;;;;7.43;4.30;;;;;;;;;;12868068;23;20000;-79
2023/05/09 16:01:43;;;;;;;4.38;3.60;;;;;;;;;;12868647;23;20021;-79
2023/05/09 16:06:44;;;;;;;4.63;3.97;;;;;;;;;;12866757;23;20091;-79
2023/05/09 16:11:45;;;;;;;4.50;3.85;;;;;;;;;;12869355;23;20009;-80
2023/05/09 16:16:48;;;;;;;4.30;3.90;;;;;;;;;;12870394;23;20491;-78
2023/05/09 16:21:49;;;;;;;5.93;4.43;;;;;;;;;;12871272;23;20059;-81
2023/05/09 16:26:50;;;;;;;5.10;4.10;;;;;;;;;;12869274;23;20001;-82
2023/05/09 16:31:52;;;;;;;4.07;3.47;;;;;;;;;;12870593;23;20000;-82
2023/05/09 16:36:54;;;;;;;4.00;3.58;;;;;;;;;;12872353;23;20004;-82
2023/05/09 16:41:56;;;;;;;5.80;5.20;;;;;;;;;;12870695;23;20384;-82
2023/05/09 16:47:07;;;;;;;4.93;4.40;;;;;;;;;;12847299;23;20076;-81
2023/05/09 16:52:14;;;;;;;4.97;3.95;;;;;;;;;;12873646;23;20001;-81
2023/05/09 16:57:19;;;;;;;4.35;3.67;;;;;;;;;;12870753;23;20320;-81
2023/05/09 17:02:20;;;;;;;3.85;3.25;;;;;;;;;;12872085;23;20016;-82
2023/05/09 17:07:39;;;;;;;3.67;3.38;;;;;;;;;;12871712;23;20017;-81
2023/05/09 17:12:40;;;;;;;6.63;5.65;;;;;;;;;;12872539;23;20433;-81
2023/05/09 17:17:47;;;;;;;3.95;3.55;;;;;;;;;;12874122;23;20024;-81
2023/05/09 17:23:10;;;;;;;3.80;3.40;;;;;;;;;;12873052;23;20057;-82
2023/05/09 17:28:16;;;;;;;3.35;2.75;;;;;;;;;;12864620;23;20440;-81
2023/05/09 17:33:26;;;;;;;3.20;2.90;;;;;;;;;;12873092;23;20004;-82
2023/05/09 17:38:28;;;;;;;5.43;4.00;;;;;;;;;;12871667;23;20005;-80
2023/05/09 17:43:43;;;;;;;4.32;3.92;;;;;;;;;;12872626;23;20005;-80
2023/05/09 17:49:12;;;;;;;4.60;3.80;;;;;;;;;;12873017;23;20012;-81
2023/05/09 17:54:17;;;;;;;4.72;4.13;;;;;;;;;;12860515;23;20028;-81
2023/05/09 17:59:20;;;;;;;3.22;2.75;;;;;;;;;;12873597;23;20004;-80
2023/05/09 18:04:21;;;;;;;3.55;3.25;;;;;;;;;;12871764;23;20058;-81
2023/05/09 18:09:23;;;;;;;3.50;3.15;;;;;;;;;;12875381;23;20028;-81
2023/05/09 18:14:26;;;;;;;3.15;2.85;;;;;;;;;;12873403;23;20012;-80
